sensor_id;sensor_type;location;lat;lon;timestamp;temperature;humidity
28761;DHT22;15917;50.014;8.352;2023-07-13T00:01:28;21.40;99.30
28761;DHT22;15917;50.014;8.352;2023-07-13T00:03:54;21.40;99.30
28761;DHT22;15917;50.014;8.352;2023-07-13T00:06:20;21.40;99.30
28761;DHT22;15917;50.014;8.352;2023-07-13T00:08:46;21.40;99.50
28761;DHT22;15917;50.014;8.352;2023-07-13T00:11:13;21.30;99.50
28761;DHT22;15917;50.014;8.352;2023-07-13T00:13:40;21.30;99.50
28761;DHT22;15917;50.014;8.352;2023-07-13T00:16:06;21.30;99.80
28761;DHT22;15917;50.014;8.352;2023-07-13T00:18:31;21.30;99.50
28761;DHT22;15917;50.014;8.352;2023-07-13T00:20:57;21.30;99.50
28761;DHT22;15917;50.014;8.352;2023-07-13T00:23:35;21.30;99.50
28761;DHT22;15917;50.014;8.352;2023-07-13T00:26:02;21.20;99.50
28761;DHT22;15917;50.014;8.352;2023-07-13T00:28:28;21.10;99.60
28761;DHT22;15917;50.014;8.352;2023-07-13T00:30:54;21.10;99.80
28761;DHT22;15917;50.014;8.352;2023-07-13T00:33:20;21.10;99.80
28761;DHT22;15917;50.014;8.352;2023-07-13T00:35:46;21.10;99.90
28761;DHT22;15917;50.014;8.352;2023-07-13T00:38:12;21.10;99.90
28761;DHT22;15917;50.014;8.352;2023-07-13T00:40:38;21.20;99.60
28761;DHT22;15917;50.014;8.352;2023-07-13T00:43:11;21.10;99.50
28761;DHT22;15917;50.014;8.352;2023-07-13T00:48:02;21.10;99.70
28761;DHT22;15917;50.014;8.352;2023-07-13T00:50:29;21.10;99.90
28761;DHT22;15917;50.014;8.352;2023-07-13T00:52:55;21.10;99.80
28761;DHT22;15917;50.014;8.352;2023-07-13T00:55:23;21.10;99.90
28761;DHT22;15917;50.014;8.352;2023-07-13T00:57:49;21.10;99.90
28761;DHT22;15917;50.014;8.352;2023-07-13T01:00:15;21.10;99.90
28761;DHT22;15917;50.014;8.352;2023-07-13T01:02:44;21.10;99.90
28761;DHT22;15917;50.014;8.352;2023-07-13T01:05:19;21.00;99.90
28761;DHT22;15917;50.014;8.352;2023-07-13T01:07:45;21.00;99.90
28761;DHT22;15917;50.014;8.352;2023-07-13T01:10:13;21.00;99.90
28761;DHT22;15917;50.014;8.352;2023-07-13T01:12:39;20.90;99.90
28761;DHT22;15917;50.014;8.352;2023-07-13T01:15:32;20.80;99.90
28761;DHT22;15917;50.014;8.352;2023-07-13T01:17:51;20.80;99.90
28761;DHT22;15917;50.014;8.352;2023-07-13T01:20:17;20.80;99.90
28761;DHT22;15917;50.014;8.352;2023-07-13T01:22:43;20.80;99.90
28761;DHT22;15917;50.014;8.352;2023-07-13T01:25:09;20.80;99.90
28761;DHT22;15917;50.014;8.352;2023-07-13T01:27:35;20.70;99.90
28761;DHT22;15917;50.014;8.352;2023-07-13T01:30:02;20.80;99.90
28761;DHT22;15917;50.014;8.352;2023-07-13T01:32:27;20.70;99.90
28761;DHT22;15917;50.014;8.352;2023-07-13T01:34:54;20.60;99.90
28761;DHT22;15917;50.014;8.352;2023-07-13T01:37:21;20.60;99.90
28761;DHT22;15917;50.014;8.352;2023-07-13T01:39:47;20.60;99.90
28761;DHT22;15917;50.014;8.352;2023-07-13T01:42:14;20.50;99.90
28761;DHT22;15917;50.014;8.352;2023-07-13T01:44:40;20.50;99.90
28761;DHT22;15917;50.014;8.352;2023-07-13T01:47:07;20.50;99.90
28761;DHT22;15917;50.014;8.352;2023-07-13T01:49:33;20.50;99.90
28761;DHT22;15917;50.014;8.352;2023-07-13T01:51:58;20.50;99.90
28761;DHT22;15917;50.014;8.352;2023-07-13T01:54:24;20.40;99.90
28761;DHT22;15917;50.014;8.352;2023-07-13T01:56:50;20.40;99.90
28761;DHT22;15917;50.014;8.352;2023-07-13T01:59:16;20.40;99.90
28761;DHT22;15917;50.014;8.352;2023-07-13T02:01:41;20.30;99.90
28761;DHT22;15917;50.014;8.352;2023-07-13T02:04:07;20.20;99.90
28761;DHT22;15917;50.014;8.352;2023-07-13T02:06:32;20.20;99.90
28761;DHT22;15917;50.014;8.352;2023-07-13T02:08:58;20.10;99.90
28761;DHT22;15917;50.014;8.352;2023-07-13T02:11:25;20.00;99.90
28761;DHT22;15917;50.014;8.352;2023-07-13T02:13:51;20.00;99.90
28761;DHT22;15917;50.014;8.352;2023-07-13T02:16:17;19.90;99.90
28761;DHT22;15917;50.014;8.352;2023-07-13T02:18:42;19.90;99.90
28761;DHT22;15917;50.014;8.352;2023-07-13T02:21:08;19.90;99.90
28761;DHT22;15917;50.014;8.352;2023-07-13T02:23:34;19.90;99.90
28761;DHT22;15917;50.014;8.352;2023-07-13T02:26:01;19.80;99.90
28761;DHT22;15917;50.014;8.352;2023-07-13T02:28:28;19.80;99.90
28761;DHT22;15917;50.014;8.352;2023-07-13T02:30:54;19.80;99.90
28761;DHT22;15917;50.014;8.352;2023-07-13T02:33:19;19.70;99.90
28761;DHT22;15917;50.014;8.352;2023-07-13T02:35:47;19.70;99.90
28761;DHT22;15917;50.014;8.352;2023-07-13T02:38:13;19.70;99.90
28761;DHT22;15917;50.014;8.352;2023-07-13T02:40:39;19.70;99.90
28761;DHT22;15917;50.014;8.352;2023-07-13T02:43:04;19.60;99.90
28761;DHT22;15917;50.014;8.352;2023-07-13T02:45:31;19.60;99.90
28761;DHT22;15917;50.014;8.352;2023-07-13T02:47:56;19.60;99.90
28761;DHT22;15917;50.014;8.352;2023-07-13T02:50:22;19.60;99.90
28761;DHT22;15917;50.014;8.352;2023-07-13T02:52:47;19.50;99.90
28761;DHT22;15917;50.014;8.352;2023-07-13T02:55:13;19.40;99.90
28761;DHT22;15917;50.014;8.352;2023-07-13T02:57:39;19.40;99.90
28761;DHT22;15917;50.014;8.352;2023-07-13T03:00:05;19.40;99.90
28761;DHT22;15917;50.014;8.352;2023-07-13T03:02:31;19.30;99.90
28761;DHT22;15917;50.014;8.352;2023-07-13T03:04:58;19.30;99.90
28761;DHT22;15917;50.014;8.352;2023-07-13T03:07:23;19.30;99.90
28761;DHT22;15917;50.014;8.352;2023-07-13T03:09:56;19.20;99.90
28761;DHT22;15917;50.014;8.352;2023-07-13T03:12:23;19.20;99.90
28761;DHT22;15917;50.014;8.352;2023-07-13T03:14:51;19.20;99.90
28761;DHT22;15917;50.014;8.352;2023-07-13T03:17:17;19.20;99.90
28761;DHT22;15917;50.014;8.352;2023-07-13T03:19:43;19.30;99.90
28761;DHT22;15917;50.014;8.352;2023-07-13T03:22:10;19.30;99.90
28761;DHT22;15917;50.014;8.352;2023-07-13T03:24:37;19.30;99.90
28761;DHT22;15917;50.014;8.352;2023-07-13T03:27:04;19.30;99.90
28761;DHT22;15917;50.014;8.352;2023-07-13T03:29:31;19.20;99.90
28761;DHT22;15917;50.014;8.352;2023-07-13T03:31:57;19.30;99.90
28761;DHT22;15917;50.014;8.352;2023-07-13T03:34:23;19.20;99.90
28761;DHT22;15917;50.014;8.352;2023-07-13T03:36:49;19.20;99.90
28761;DHT22;15917;50.014;8.352;2023-07-13T03:39:15;19.20;99.90
28761;DHT22;15917;50.014;8.352;2023-07-13T03:41:47;19.30;99.90
28761;DHT22;15917;50.014;8.352;2023-07-13T03:44:15;19.30;99.90
28761;DHT22;15917;50.014;8.352;2023-07-13T03:46:41;19.30;99.90
28761;DHT22;15917;50.014;8.352;2023-07-13T03:49:08;19.30;99.90
28761;DHT22;15917;50.014;8.352;2023-07-13T03:51:34;19.20;99.90
28761;DHT22;15917;50.014;8.352;2023-07-13T03:54:00;19.20;99.90
28761;DHT22;15917;50.014;8.352;2023-07-13T03:56:25;19.20;99.90
28761;DHT22;15917;50.014;8.352;2023-07-13T03:58:52;19.20;99.90
28761;DHT22;15917;50.014;8.352;2023-07-13T04:01:21;19.30;99.90
28761;DHT22;15917;50.014;8.352;2023-07-13T04:03:47;19.20;99.90
28761;DHT22;15917;50.014;8.352;2023-07-13T04:06:27;19.20;99.90
28761;DHT22;15917;50.014;8.352;2023-07-13T04:08:55;19.20;99.90
28761;DHT22;15917;50.014;8.352;2023-07-13T04:11:23;19.20;99.90
28761;DHT22;15917;50.014;8.352;2023-07-13T04:13:49;19.20;99.90
28761;DHT22;15917;50.014;8.352;2023-07-13T04:16:17;19.20;99.90
28761;DHT22;15917;50.014;8.352;2023-07-13T04:18:44;19.20;99.90
28761;DHT22;15917;50.014;8.352;2023-07-13T04:21:10;19.20;99.90
28761;DHT22;15917;50.014;8.352;2023-07-13T04:23:37;19.20;99.90
28761;DHT22;15917;50.014;8.352;2023-07-13T04:26:02;19.20;99.90
28761;DHT22;15917;50.014;8.352;2023-07-13T04:28:28;19.10;99.90
28761;DHT22;15917;50.014;8.352;2023-07-13T04:30:54;19.10;99.90
28761;DHT22;15917;50.014;8.352;2023-07-13T04:33:20;19.10;99.90
28761;DHT22;15917;50.014;8.352;2023-07-13T04:35:50;19.10;99.90
28761;DHT22;15917;50.014;8.352;2023-07-13T04:38:20;19.20;99.90
28761;DHT22;15917;50.014;8.352;2023-07-13T04:40:47;19.60;99.90
28761;DHT22;15917;50.014;8.352;2023-07-13T04:43:12;20.00;99.90
28761;DHT22;15917;50.014;8.352;2023-07-13T04:45:38;20.10;99.90
28761;DHT22;15917;50.014;8.352;2023-07-13T04:48:04;20.20;99.90
28761;DHT22;15917;50.014;8.352;2023-07-13T04:50:30;20.20;99.90
28761;DHT22;15917;50.014;8.352;2023-07-13T04:52:56;20.10;99.90
28761;DHT22;15917;50.014;8.352;2023-07-13T04:55:22;20.00;99.90
28761;DHT22;15917;50.014;8.352;2023-07-13T04:57:48;19.90;99.90
28761;DHT22;15917;50.014;8.352;2023-07-13T05:00:14;19.80;99.90
28761;DHT22;15917;50.014;8.352;2023-07-13T05:02:44;19.70;99.90
28761;DHT22;15917;50.014;8.352;2023-07-13T05:05:10;19.70;99.90
28761;DHT22;15917;50.014;8.352;2023-07-13T05:07:35;19.70;99.90
28761;DHT22;15917;50.014;8.352;2023-07-13T05:10:02;19.80;99.90
28761;DHT22;15917;50.014;8.352;2023-07-13T05:12:28;19.80;99.90
28761;DHT22;15917;50.014;8.352;2023-07-13T05:14:54;19.80;99.90
28761;DHT22;15917;50.014;8.352;2023-07-13T05:17:19;19.70;99.90
28761;DHT22;15917;50.014;8.352;2023-07-13T05:19:45;19.70;99.90
28761;DHT22;15917;50.014;8.352;2023-07-13T05:22:11;19.70;99.90
28761;DHT22;15917;50.014;8.352;2023-07-13T05:24:36;19.80;99.90
28761;DHT22;15917;50.014;8.352;2023-07-13T05:27:02;20.10;99.90
28761;DHT22;15917;50.014;8.352;2023-07-13T05:29:28;20.10;99.90
28761;DHT22;15917;50.014;8.352;2023-07-13T05:31:54;20.20;99.90
28761;DHT22;15917;50.014;8.352;2023-07-13T05:34:20;20.40;99.90
28761;DHT22;15917;50.014;8.352;2023-07-13T05:36:46;20.50;99.90
28761;DHT22;15917;50.014;8.352;2023-07-13T05:39:11;20.70;99.90
28761;DHT22;15917;50.014;8.352;2023-07-13T05:41:37;20.90;99.90
28761;DHT22;15917;50.014;8.352;2023-07-13T05:44:03;21.00;99.90
28761;DHT22;15917;50.014;8.352;2023-07-13T05:46:29;21.00;99.90
28761;DHT22;15917;50.014;8.352;2023-07-13T05:48:54;21.00;99.90
28761;DHT22;15917;50.014;8.352;2023-07-13T05:51:20;21.10;99.90
28761;DHT22;15917;50.014;8.352;2023-07-13T05:53:45;21.10;99.90
28761;DHT22;15917;50.014;8.352;2023-07-13T05:56:11;21.20;99.90
28761;DHT22;15917;50.014;8.352;2023-07-13T05:58:38;21.40;99.90
28761;DHT22;15917;50.014;8.352;2023-07-13T06:01:10;21.50;99.90
28761;DHT22;15917;50.014;8.352;2023-07-13T06:03:35;21.60;99.90
28761;DHT22;15917;50.014;8.352;2023-07-13T06:06:04;21.70;99.90
28761;DHT22;15917;50.014;8.352;2023-07-13T06:08:31;21.80;99.90
28761;DHT22;15917;50.014;8.352;2023-07-13T06:11:14;21.80;99.90
28761;DHT22;15917;50.014;8.352;2023-07-13T06:13:40;22.00;99.90
28761;DHT22;15917;50.014;8.352;2023-07-13T06:16:07;21.90;99.90
28761;DHT22;15917;50.014;8.352;2023-07-13T06:18:35;21.70;99.90
28761;DHT22;15917;50.014;8.352;2023-07-13T06:21:05;21.50;99.90
28761;DHT22;15917;50.014;8.352;2023-07-13T06:23:31;21.40;99.90
28761;DHT22;15917;50.014;8.352;2023-07-13T06:25:57;21.30;99.90
28761;DHT22;15917;50.014;8.352;2023-07-13T06:28:22;21.20;99.90
28761;DHT22;15917;50.014;8.352;2023-07-13T06:30:48;21.20;99.90
28761;DHT22;15917;50.014;8.352;2023-07-13T06:33:13;21.20;99.90
28761;DHT22;15917;50.014;8.352;2023-07-13T06:35:39;21.20;99.90
28761;DHT22;15917;50.014;8.352;2023-07-13T06:38:05;21.20;99.90
28761;DHT22;15917;50.014;8.352;2023-07-13T06:40:30;21.30;99.90
28761;DHT22;15917;50.014;8.352;2023-07-13T06:42:56;21.30;99.90
28761;DHT22;15917;50.014;8.352;2023-07-13T06:45:22;21.40;99.90
28761;DHT22;15917;50.014;8.352;2023-07-13T06:47:48;21.40;99.90
28761;DHT22;15917;50.014;8.352;2023-07-13T06:50:15;21.50;99.90
28761;DHT22;15917;50.014;8.352;2023-07-13T06:52:40;21.40;99.90
28761;DHT22;15917;50.014;8.352;2023-07-13T06:55:06;21.40;99.90
28761;DHT22;15917;50.014;8.352;2023-07-13T06:57:31;21.50;99.90
28761;DHT22;15917;50.014;8.352;2023-07-13T06:59:57;21.60;99.90
28761;DHT22;15917;50.014;8.352;2023-07-13T07:02:23;21.70;99.90
28761;DHT22;15917;50.014;8.352;2023-07-13T07:04:48;21.80;99.90
28761;DHT22;15917;50.014;8.352;2023-07-13T07:07:15;21.90;99.90
28761;DHT22;15917;50.014;8.352;2023-07-13T07:09:40;21.90;99.90
28761;DHT22;15917;50.014;8.352;2023-07-13T07:12:06;22.00;99.90
28761;DHT22;15917;50.014;8.352;2023-07-13T07:14:32;22.10;99.90
28761;DHT22;15917;50.014;8.352;2023-07-13T07:17:00;22.10;99.90
28761;DHT22;15917;50.014;8.352;2023-07-13T07:19:28;22.10;99.90
28761;DHT22;15917;50.014;8.352;2023-07-13T07:21:54;22.20;99.90
28761;DHT22;15917;50.014;8.352;2023-07-13T07:24:20;22.20;99.90
28761;DHT22;15917;50.014;8.352;2023-07-13T07:26:45;22.30;99.90
28761;DHT22;15917;50.014;8.352;2023-07-13T07:29:11;22.30;99.90
28761;DHT22;15917;50.014;8.352;2023-07-13T07:31:36;22.30;99.90
28761;DHT22;15917;50.014;8.352;2023-07-13T07:34:02;22.40;99.60
28761;DHT22;15917;50.014;8.352;2023-07-13T07:36:28;22.50;99.80
28761;DHT22;15917;50.014;8.352;2023-07-13T07:38:54;22.50;99.80
28761;DHT22;15917;50.014;8.352;2023-07-13T07:41:19;22.60;99.10
28761;DHT22;15917;50.014;8.352;2023-07-13T07:43:45;22.60;99.40
28761;DHT22;15917;50.014;8.352;2023-07-13T07:46:11;22.70;99.10
28761;DHT22;15917;50.014;8.352;2023-07-13T07:48:36;22.80;99.00
28761;DHT22;15917;50.014;8.352;2023-07-13T07:51:02;22.90;98.70
28761;DHT22;15917;50.014;8.352;2023-07-13T07:53:28;23.00;98.80
28761;DHT22;15917;50.014;8.352;2023-07-13T07:55:53;23.00;98.20
28761;DHT22;15917;50.014;8.352;2023-07-13T07:58:19;23.00;98.60
28761;DHT22;15917;50.014;8.352;2023-07-13T08:00:44;23.10;98.30
28761;DHT22;15917;50.014;8.352;2023-07-13T08:03:10;23.10;98.20
28761;DHT22;15917;50.014;8.352;2023-07-13T08:05:36;23.10;97.00
28761;DHT22;15917;50.014;8.352;2023-07-13T08:08:03;23.20;96.70
28761;DHT22;15917;50.014;8.352;2023-07-13T08:10:28;23.20;96.40
28761;DHT22;15917;50.014;8.352;2023-07-13T08:12:54;23.30;96.60
28761;DHT22;15917;50.014;8.352;2023-07-13T08:15:20;23.40;96.20
28761;DHT22;15917;50.014;8.352;2023-07-13T08:17:47;23.50;95.80
28761;DHT22;15917;50.014;8.352;2023-07-13T08:20:13;23.50;95.60
28761;DHT22;15917;50.014;8.352;2023-07-13T08:22:39;23.40;95.30
28761;DHT22;15917;50.014;8.352;2023-07-13T08:25:05;23.40;95.80
28761;DHT22;15917;50.014;8.352;2023-07-13T08:27:33;23.30;95.70
28761;DHT22;15917;50.014;8.352;2023-07-13T08:29:58;23.30;94.80
28761;DHT22;15917;50.014;8.352;2023-07-13T08:32:24;23.40;94.80
28761;DHT22;15917;50.014;8.352;2023-07-13T08:34:50;23.60;95.00
28761;DHT22;15917;50.014;8.352;2023-07-13T08:37:16;23.80;95.30
28761;DHT22;15917;50.014;8.352;2023-07-13T08:39:42;23.90;94.90
28761;DHT22;15917;50.014;8.352;2023-07-13T08:45:14;24.20;94.40
28761;DHT22;15917;50.014;8.352;2023-07-13T08:47:47;24.30;93.80
28761;DHT22;15917;50.014;8.352;2023-07-13T08:50:18;24.30;93.30
28761;DHT22;15917;50.014;8.352;2023-07-13T08:52:45;24.30;93.30
28761;DHT22;15917;50.014;8.352;2023-07-13T08:55:12;24.40;94.00
28761;DHT22;15917;50.014;8.352;2023-07-13T08:57:41;24.40;92.80
28761;DHT22;15917;50.014;8.352;2023-07-13T09:00:11;24.50;91.90
28761;DHT22;15917;50.014;8.352;2023-07-13T09:02:54;24.60;91.60
28761;DHT22;15917;50.014;8.352;2023-07-13T09:05:30;24.60;91.40
28761;DHT22;15917;50.014;8.352;2023-07-13T09:10:46;24.60;91.40
28761;DHT22;15917;50.014;8.352;2023-07-13T09:16:04;24.80;91.50
28761;DHT22;15917;50.014;8.352;2023-07-13T09:18:38;25.00;90.30
28761;DHT22;15917;50.014;8.352;2023-07-13T09:21:44;25.20;89.60
28761;DHT22;15917;50.014;8.352;2023-07-13T09:24:27;25.20;90.10
28761;DHT22;15917;50.014;8.352;2023-07-13T09:26:54;25.20;88.70
28761;DHT22;15917;50.014;8.352;2023-07-13T09:29:27;25.20;88.70
28761;DHT22;15917;50.014;8.352;2023-07-13T09:31:57;25.10;88.90
28761;DHT22;15917;50.014;8.352;2023-07-13T09:34:24;25.30;90.10
28761;DHT22;15917;50.014;8.352;2023-07-13T09:36:49;25.30;89.30
28761;DHT22;15917;50.014;8.352;2023-07-13T09:39:39;25.30;89.50
28761;DHT22;15917;50.014;8.352;2023-07-13T09:42:14;25.20;88.90
28761;DHT22;15917;50.014;8.352;2023-07-13T09:47:19;25.20;89.40
28761;DHT22;15917;50.014;8.352;2023-07-13T09:49:46;25.40;89.50
28761;DHT22;15917;50.014;8.352;2023-07-13T09:52:15;25.40;89.40
28761;DHT22;15917;50.014;8.352;2023-07-13T09:54:45;25.60;89.30
28761;DHT22;15917;50.014;8.352;2023-07-13T09:57:19;25.60;89.00
28761;DHT22;15917;50.014;8.352;2023-07-13T09:59:50;25.80;88.40
28761;DHT22;15917;50.014;8.352;2023-07-13T10:02:34;25.90;89.30
28761;DHT22;15917;50.014;8.352;2023-07-13T10:05:01;26.00;88.20
28761;DHT22;15917;50.014;8.352;2023-07-13T10:07:29;26.00;87.30
28761;DHT22;15917;50.014;8.352;2023-07-13T10:09:57;26.00;87.10
28761;DHT22;15917;50.014;8.352;2023-07-13T10:12:23;26.00;87.00
28761;DHT22;15917;50.014;8.352;2023-07-13T10:14:52;26.10;86.30
28761;DHT22;15917;50.014;8.352;2023-07-13T10:17:29;26.10;85.70
28761;DHT22;15917;50.014;8.352;2023-07-13T10:20:05;26.20;86.10
28761;DHT22;15917;50.014;8.352;2023-07-13T10:22:55;26.00;85.00
28761;DHT22;15917;50.014;8.352;2023-07-13T10:25:34;25.90;85.70
28761;DHT22;15917;50.014;8.352;2023-07-13T10:28:33;26.00;86.50
28761;DHT22;15917;50.014;8.352;2023-07-13T10:31:01;25.90;86.10
28761;DHT22;15917;50.014;8.352;2023-07-13T10:33:27;25.70;86.30
28761;DHT22;15917;50.014;8.352;2023-07-13T10:36:05;25.90;85.00
28761;DHT22;15917;50.014;8.352;2023-07-13T10:38:36;26.00;85.00
28761;DHT22;15917;50.014;8.352;2023-07-13T10:41:04;26.20;84.20
28761;DHT22;15917;50.014;8.352;2023-07-13T10:43:37;26.50;84.70
28761;DHT22;15917;50.014;8.352;2023-07-13T10:46:08;26.70;84.50
28761;DHT22;15917;50.014;8.352;2023-07-13T10:48:35;26.70;84.20
28761;DHT22;15917;50.014;8.352;2023-07-13T10:51:04;26.60;84.60
28761;DHT22;15917;50.014;8.352;2023-07-13T10:53:34;26.70;83.50
28761;DHT22;15917;50.014;8.352;2023-07-13T10:58:39;26.50;81.40
28761;DHT22;15917;50.014;8.352;2023-07-13T11:01:23;26.30;81.20
28761;DHT22;15917;50.014;8.352;2023-07-13T11:03:54;26.30;81.00
28761;DHT22;15917;50.014;8.352;2023-07-13T11:06:34;26.40;80.30
28761;DHT22;15917;50.014;8.352;2023-07-13T11:11:56;26.60;80.50
28761;DHT22;15917;50.014;8.352;2023-07-13T11:14:34;26.70;80.00
28761;DHT22;15917;50.014;8.352;2023-07-13T11:19:54;26.90;79.00
28761;DHT22;15917;50.014;8.352;2023-07-13T11:22:25;26.90;78.60
28761;DHT22;15917;50.014;8.352;2023-07-13T11:25:31;26.90;77.30
28761;DHT22;15917;50.014;8.352;2023-07-13T11:35:56;27.00;78.60
28761;DHT22;15917;50.014;8.352;2023-07-13T11:38:38;27.30;78.50
28761;DHT22;15917;50.014;8.352;2023-07-13T11:41:07;27.40;79.10
28761;DHT22;15917;50.014;8.352;2023-07-13T11:43:33;27.50;77.80
28761;DHT22;15917;50.014;8.352;2023-07-13T11:46:12;27.50;77.50
28761;DHT22;15917;50.014;8.352;2023-07-13T11:48:38;27.20;77.50
28761;DHT22;15917;50.014;8.352;2023-07-13T11:51:04;26.90;78.10
28761;DHT22;15917;50.014;8.352;2023-07-13T11:53:46;26.90;78.90
28761;DHT22;15917;50.014;8.352;2023-07-13T11:56:13;27.20;77.90
28761;DHT22;15917;50.014;8.352;2023-07-13T11:58:39;27.10;77.90
28761;DHT22;15917;50.014;8.352;2023-07-13T12:01:05;26.90;78.10
28761;DHT22;15917;50.014;8.352;2023-07-13T12:03:32;26.60;78.30
28761;DHT22;15917;50.014;8.352;2023-07-13T12:06:04;26.50;79.70
28761;DHT22;15917;50.014;8.352;2023-07-13T12:08:31;26.20;79.10
28761;DHT22;15917;50.014;8.352;2023-07-13T12:11:17;26.00;80.10
28761;DHT22;15917;50.014;8.352;2023-07-13T12:13:44;25.90;80.50
28761;DHT22;15917;50.014;8.352;2023-07-13T12:16:20;25.90;81.40
28761;DHT22;15917;50.014;8.352;2023-07-13T12:18:48;25.90;81.40
28761;DHT22;15917;50.014;8.352;2023-07-13T12:21:17;25.80;80.60
28761;DHT22;15917;50.014;8.352;2023-07-13T12:23:44;25.80;81.60
28761;DHT22;15917;50.014;8.352;2023-07-13T12:26:12;25.80;81.60
28761;DHT22;15917;50.014;8.352;2023-07-13T12:28:51;25.80;81.30
28761;DHT22;15917;50.014;8.352;2023-07-13T12:31:29;25.70;82.10
28761;DHT22;15917;50.014;8.352;2023-07-13T12:34:08;25.70;82.60
28761;DHT22;15917;50.014;8.352;2023-07-13T12:36:37;25.90;82.60
28761;DHT22;15917;50.014;8.352;2023-07-13T12:41:48;25.80;81.50
28761;DHT22;15917;50.014;8.352;2023-07-13T12:44:17;25.80;82.00
28761;DHT22;15917;50.014;8.352;2023-07-13T12:47:13;25.80;82.40
28761;DHT22;15917;50.014;8.352;2023-07-13T12:49:47;25.70;82.10
28761;DHT22;15917;50.014;8.352;2023-07-13T12:52:21;25.70;83.00
28761;DHT22;15917;50.014;8.352;2023-07-13T12:55:02;25.60;82.80
28761;DHT22;15917;50.014;8.352;2023-07-13T12:57:28;25.60;81.90
28761;DHT22;15917;50.014;8.352;2023-07-13T12:59:54;25.60;82.50
28761;DHT22;15917;50.014;8.352;2023-07-13T13:02:28;25.70;82.00
28761;DHT22;15917;50.014;8.352;2023-07-13T13:04:55;25.70;81.40
28761;DHT22;15917;50.014;8.352;2023-07-13T13:07:22;25.80;81.80
28761;DHT22;15917;50.014;8.352;2023-07-13T13:09:48;25.80;81.90
28761;DHT22;15917;50.014;8.352;2023-07-13T13:12:14;25.80;81.70
28761;DHT22;15917;50.014;8.352;2023-07-13T13:14:40;25.90;81.90
28761;DHT22;15917;50.014;8.352;2023-07-13T13:17:21;26.00;82.40
28761;DHT22;15917;50.014;8.352;2023-07-13T13:19:49;26.00;82.40
28761;DHT22;15917;50.014;8.352;2023-07-13T13:22:15;26.00;82.30
28761;DHT22;15917;50.014;8.352;2023-07-13T13:24:41;25.70;82.30
28761;DHT22;15917;50.014;8.352;2023-07-13T13:27:16;25.60;82.10
28761;DHT22;15917;50.014;8.352;2023-07-13T13:29:43;25.60;82.30
28761;DHT22;15917;50.014;8.352;2023-07-13T13:32:14;25.60;82.00
28761;DHT22;15917;50.014;8.352;2023-07-13T13:34:40;25.70;81.80
28761;DHT22;15917;50.014;8.352;2023-07-13T13:37:21;25.90;82.50
28761;DHT22;15917;50.014;8.352;2023-07-13T13:39:47;26.00;82.40
28761;DHT22;15917;50.014;8.352;2023-07-13T13:42:13;26.00;82.60
28761;DHT22;15917;50.014;8.352;2023-07-13T13:44:39;25.80;82.10
28761;DHT22;15917;50.014;8.352;2023-07-13T13:47:30;25.80;82.00
28761;DHT22;15917;50.014;8.352;2023-07-13T13:49:57;25.90;82.10
28761;DHT22;15917;50.014;8.352;2023-07-13T13:52:24;25.80;82.20
28761;DHT22;15917;50.014;8.352;2023-07-13T13:54:49;25.80;84.20
28761;DHT22;15917;50.014;8.352;2023-07-13T13:57:15;25.70;82.20
28761;DHT22;15917;50.014;8.352;2023-07-13T13:59:41;25.80;81.80
28761;DHT22;15917;50.014;8.352;2023-07-13T14:02:23;25.90;81.50
28761;DHT22;15917;50.014;8.352;2023-07-13T14:04:58;26.10;81.10
28761;DHT22;15917;50.014;8.352;2023-07-13T14:07:25;26.10;81.50
28761;DHT22;15917;50.014;8.352;2023-07-13T14:09:52;26.00;81.50
28761;DHT22;15917;50.014;8.352;2023-07-13T14:12:18;26.10;81.60
28761;DHT22;15917;50.014;8.352;2023-07-13T14:14:44;26.20;81.00
28761;DHT22;15917;50.014;8.352;2023-07-13T14:17:23;26.20;81.00
28761;DHT22;15917;50.014;8.352;2023-07-13T14:19:53;26.20;82.10
28761;DHT22;15917;50.014;8.352;2023-07-13T14:22:24;26.20;83.00
28761;DHT22;15917;50.014;8.352;2023-07-13T14:24:52;26.10;83.80
28761;DHT22;15917;50.014;8.352;2023-07-13T14:27:19;26.00;84.70
28761;DHT22;15917;50.014;8.352;2023-07-13T14:29:44;25.80;84.40
28761;DHT22;15917;50.014;8.352;2023-07-13T14:32:11;25.60;86.60
28761;DHT22;15917;50.014;8.352;2023-07-13T14:34:37;25.40;85.70
28761;DHT22;15917;50.014;8.352;2023-07-13T14:37:03;25.50;86.60
28761;DHT22;15917;50.014;8.352;2023-07-13T14:39:30;25.40;85.20
28761;DHT22;15917;50.014;8.352;2023-07-13T14:41:56;25.30;85.50
28761;DHT22;15917;50.014;8.352;2023-07-13T14:44:26;25.30;85.20
28761;DHT22;15917;50.014;8.352;2023-07-13T14:46:52;25.30;86.20
28761;DHT22;15917;50.014;8.352;2023-07-13T14:49:30;25.30;84.80
28761;DHT22;15917;50.014;8.352;2023-07-13T14:52:02;25.30;86.20
28761;DHT22;15917;50.014;8.352;2023-07-13T14:54:29;25.40;85.50
28761;DHT22;15917;50.014;8.352;2023-07-13T14:56:55;25.50;84.80
28761;DHT22;15917;50.014;8.352;2023-07-13T14:59:20;25.40;83.20
28761;DHT22;15917;50.014;8.352;2023-07-13T15:01:47;25.40;84.80
28761;DHT22;15917;50.014;8.352;2023-07-13T15:04:14;25.40;84.40
28761;DHT22;15917;50.014;8.352;2023-07-13T15:07:00;25.50;83.70
28761;DHT22;15917;50.014;8.352;2023-07-13T15:09:26;25.50;85.30
28761;DHT22;15917;50.014;8.352;2023-07-13T15:11:55;25.60;85.20
28761;DHT22;15917;50.014;8.352;2023-07-13T15:14:21;25.60;84.40
28761;DHT22;15917;50.014;8.352;2023-07-13T15:16:51;25.70;84.30
28761;DHT22;15917;50.014;8.352;2023-07-13T15:19:18;25.70;83.20
28761;DHT22;15917;50.014;8.352;2023-07-13T15:21:44;25.70;84.00
28761;DHT22;15917;50.014;8.352;2023-07-13T15:24:10;25.70;83.00
28761;DHT22;15917;50.014;8.352;2023-07-13T15:26:36;25.60;82.50
28761;DHT22;15917;50.014;8.352;2023-07-13T15:29:04;25.60;82.50
28761;DHT22;15917;50.014;8.352;2023-07-13T15:31:30;25.70;83.20
28761;DHT22;15917;50.014;8.352;2023-07-13T15:33:58;25.70;83.30
28761;DHT22;15917;50.014;8.352;2023-07-13T15:36:27;25.80;83.10
28761;DHT22;15917;50.014;8.352;2023-07-13T15:38:54;25.90;83.70
28761;DHT22;15917;50.014;8.352;2023-07-13T15:43:52;26.10;82.80
28761;DHT22;15917;50.014;8.352;2023-07-13T15:46:19;26.20;82.60
28761;DHT22;15917;50.014;8.352;2023-07-13T15:48:46;26.30;82.50
28761;DHT22;15917;50.014;8.352;2023-07-13T15:51:20;26.30;83.00
28761;DHT22;15917;50.014;8.352;2023-07-13T15:53:47;26.40;82.30
28761;DHT22;15917;50.014;8.352;2023-07-13T15:56:24;26.70;81.80
28761;DHT22;15917;50.014;8.352;2023-07-13T15:58:51;27.10;81.30
28761;DHT22;15917;50.014;8.352;2023-07-13T16:01:17;27.30;79.60
28761;DHT22;15917;50.014;8.352;2023-07-13T16:03:47;27.40;78.90
28761;DHT22;15917;50.014;8.352;2023-07-13T16:08:44;27.10;78.50
28761;DHT22;15917;50.014;8.352;2023-07-13T16:13:46;27.20;78.60
28761;DHT22;15917;50.014;8.352;2023-07-13T16:16:13;27.10;79.20
28761;DHT22;15917;50.014;8.352;2023-07-13T16:18:41;27.10;79.20